Time;durP1;ratioP1;P1;durP2;ratioP2;P2;SDS_P1;SDS_P2;PMS_P1;PMS_P2;Temp;Humidity;BMP_temperature;BMP_pressure;BME280_temperature;BME280_humidity;BME280_pressure;Samples;Min_cycle;Max_cycle;Signal;HPM_P1;HPM_P2
2022/03/21 00:01:40;;;;;;;54.70;27.00;;;;;;;-0.67;38.91;102762.97;123291;1102;104425;-84
2022/03/21 00:04:17;;;;;;;50.97;25.87;;;;;;;-0.68;38.98;102760.22;123603;1100;104329;-83
2022/03/21 00:06:49;;;;;;;53.60;25.73;;;;;;;-0.68;38.65;102760.22;123992;1099;104235;-82
2022/03/21 00:09:23;;;;;;;52.10;25.70;;;;;;;-0.69;39.75;102759.27;123687;1099;105404;-82
2022/03/21 00:11:53;;;;;;;;;;;;;;;-0.70;39.94;102761.67;124018;1099;104371;-82
2022/03/21 00:14:23;;;;;;;58.43;24.63;;;;;;;-0.73;39.80;102760.58;123707;1102;104620;-82
2022/03/21 00:23:30;;;;;;;53.70;28.27;;;;;;;-0.91;40.80;102751.59;123570;1099;104236;-82
2022/03/21 00:26:41;;;;;;;55.83;26.73;;;;;;;-0.97;40.82;102748.30;123281;1102;104562;-83
2022/03/21 00:29:31;;;;;;;54.73;28.17;;;;;;;-1.03;40.48;102757.88;123316;1102;104469;-84
2022/03/21 00:32:28;;;;;;;54.23;26.80;;;;;;;-1.05;39.91;102750.73;123235;1102;104424;-83
2022/03/21 00:58:51;;;;;;;54.60;25.25;;;;;;;-1.39;42.25;102741.56;123084;1103;104881;-84
2022/03/21 01:01:50;;;;;;;53.37;24.93;;;;;;;-1.43;41.95;102734.19;123253;1102;104401;-83
2022/03/21 01:10:47;;;;;;;51.27;24.13;;;;;;;-1.50;42.65;102728.31;123107;1105;104309;-82
2022/03/21 01:13:41;;;;;;;49.60;24.03;;;;;;;-1.50;41.96;102727.40;122914;1102;104305;-83
2022/03/21 01:19:50;;;;;;;51.43;24.23;;;;;;;-1.53;42.48;102722.80;123220;1102;104419;-83
2022/03/21 01:29:04;;;;;;;49.40;23.33;;;;;;;-1.56;43.04;102718.94;122831;1103;104431;-83
2022/03/21 01:57:39;;;;;;;45.70;22.40;;;;;;;-1.74;43.85;102725.39;122935;1103;104412;-83
2022/03/21 02:00:35;;;;;;;48.93;24.80;;;;;;;-1.77;43.16;102717.30;122869;1105;104357;-83
2022/03/21 02:03:19;;;;;;;46.03;22.43;;;;;;;-1.82;43.23;102720.23;122770;1105;104354;-82
2022/03/21 02:09:53;;;;;;;50.10;23.95;;;;;;;-1.84;43.68;102711.41;122795;1105;104788;-84
2022/03/21 02:15:56;;;;;;;51.43;25.27;;;;;;;-1.87;43.72;102713.62;122807;1105;104398;-83
2022/03/21 02:18:59;;;;;;;52.83;25.53;;;;;;;-1.89;44.06;102722.78;122837;1105;104552;-82
2022/03/21 02:25:48;;;;;;;47.00;24.57;;;;;;;-1.96;43.61;102717.65;122806;1105;104331;-84
2022/03/21 02:31:37;;;;;;;51.73;26.27;;;;;;;-2.09;44.54;102719.45;123224;1102;104408;-83
2022/03/21 02:37:09;;;;;;;54.77;26.27;;;;;;;-2.21;43.42;102722.38;123240;1102;104379;-83
2022/03/21 02:40:12;;;;;;;52.47;25.93;;;;;;;-2.24;43.83;102723.66;123287;1100;104398;-83
2022/03/21 02:52:10;;;;;;;50.87;26.03;;;;;;;-2.47;44.42;102729.45;123162;1102;104245;-83
2022/03/21 02:58:04;;;;;;;49.90;24.63;;;;;;;-2.53;44.61;102726.13;123260;1102;104421;-83
2022/03/21 03:01:00;;;;;;;46.40;23.90;;;;;;;-2.58;45.81;102729.79;123310;1102;104485;-83
2022/03/21 03:03:58;;;;;;;48.83;23.80;;;;;;;-2.62;45.59;102719.84;123296;1102;104626;-82
2022/03/21 03:06:31;;;;;;;50.67;24.60;;;;;;;-2.66;45.83;102718.55;123311;1102;108375;-82
2022/03/21 03:09:06;;;;;;;49.38;22.65;;;;;;;-2.68;46.20;102716.52;123618;1102;104287;-82
2022/03/21 03:11:40;;;;;;;50.83;22.43;;;;;;;-2.71;48.26;102723.12;123688;1102;105035;-82
2022/03/21 03:14:12;;;;;;;50.58;22.77;;;;;;;-2.72;46.55;102717.80;123331;1102;104332;-82
2022/03/21 03:16:43;;;;;;;55.03;24.47;;;;;;;-2.72;47.12;102712.66;123611;1102;119816;-82
2022/03/21 03:19:15;;;;;;;52.33;23.87;;;;;;;-2.73;48.02;102713.38;123657;1102;104562;-82
2022/03/21 03:25:25;;;;;;;49.60;23.15;;;;;;;-2.78;47.15;102714.46;123628;1099;104287;-83
2022/03/21 03:27:55;;;;;;;45.78;21.70;;;;;;;-2.79;47.25;102717.75;123516;1098;104306;-82
2022/03/21 03:33:49;;;;;;;44.30;21.97;;;;;;;-2.78;47.61;102710.23;123496;1099;104747;-83
2022/03/21 03:36:33;;;;;;;42.93;19.20;;;;;;;-2.76;47.86;102718.13;123621;1099;104345;-82
2022/03/21 03:39:05;;;;;;;46.23;22.63;;;;;;;-2.78;47.96;102704.18;123411;1099;104466;-82
2022/03/21 03:41:34;;;;;;;44.80;22.00;;;;;;;-2.81;47.93;102704.70;124002;1099;104315;-82
2022/03/21 03:44:05;;;;;;;43.17;21.23;;;;;;;-2.83;47.41;102702.70;123878;1099;104220;-82
2022/03/21 03:46:35;;;;;;;48.43;20.90;;;;;;;-2.84;48.83;102706.89;124164;1099;104257;-82
2022/03/21 03:49:06;;;;;;;43.80;20.97;;;;;;;-2.85;47.78;102706.70;124228;1099;104195;-83
2022/03/21 03:51:38;;;;;;;46.40;21.53;;;;;;;-2.84;47.99;102708.56;123814;1099;104274;-82
2022/03/21 03:54:09;;;;;;;45.73;20.07;;;;;;;-2.84;47.60;102703.42;124098;1099;104488;-82
2022/03/21 04:05:21;;;;;;;39.43;20.23;;;;;;;-2.91;48.50;102688.90;123355;1099;104316;-82
2022/03/21 04:17:43;;;;;;;46.17;19.70;;;;;;;-2.95;48.86;102687.58;123576;1099;104486;-83
2022/03/21 04:20:31;;;;;;;42.97;19.43;;;;;;;-2.94;48.47;102694.56;123616;1099;104367;-82
2022/03/21 04:23:39;;;;;;;38.83;18.83;;;;;;;-2.94;48.81;102693.66;123648;1099;104319;-81
2022/03/21 04:36:05;;;;;;;45.25;21.05;;;;;;;-2.90;49.66;102698.42;123511;1099;104226;-83
2022/03/21 04:45:12;;;;;;;62.30;21.20;;;;;;;-2.79;48.84;102705.84;123464;1099;104290;-83
2022/03/21 04:47:55;;;;;;;39.57;18.10;;;;;;;-2.75;50.89;102699.42;123701;1099;104340;-82
2022/03/21 04:50:46;;;;;;;43.37;20.47;;;;;;;-2.69;49.40;102697.61;123614;1099;104619;-83
2022/03/21 04:53:43;;;;;;;49.87;21.10;;;;;;;-2.64;49.12;102693.05;123502;1099;104246;-82
2022/03/21 04:56:20;;;;;;;45.60;19.70;;;;;;;-2.58;49.62;102694.70;123530;1098;104389;-83
2022/03/21 05:02:04;;;;;;;42.27;19.87;;;;;;;-2.49;49.48;102688.84;123892;1099;104261;-82
2022/03/21 05:04:35;;;;;;;51.73;21.13;;;;;;;-2.42;49.15;102691.45;123828;1099;104374;-83
2022/03/21 05:07:16;;;;;;;50.37;21.73;;;;;;;-2.36;48.80;102693.12;123738;1099;104351;-83
2022/03/21 05:10:25;;;;;;;42.35;21.35;;;;;;;-2.28;48.82;102701.77;123674;1099;104523;-82
2022/03/21 05:13:12;;;;;;;47.10;22.40;;;;;;;-2.17;49.98;102709.17;123925;1099;104289;-83
2022/03/21 05:15:46;;;;;;;48.90;23.37;;;;;;;-2.05;48.95;102706.23;124002;1099;104306;-82
2022/03/21 05:18:16;;;;;;;;;;;;;;;-2.01;50.30;102696.51;123948;1099;104303;-83
2022/03/21 05:20:48;;;;;;;47.87;21.37;;;;;;;-1.94;49.54;102694.67;123867;1099;104386;-82
2022/03/21 05:32:04;;;;;;;49.30;24.20;;;;;;;-1.62;50.15;102701.13;123802;1099;104477;-83
2022/03/21 05:37:35;;;;;;;44.07;21.83;;;;;;;-1.45;49.72;102701.47;124577;1099;104869;-82
2022/03/21 05:43:06;;;;;;;44.17;21.73;;;;;;;-1.29;48.81;102685.27;124838;1098;104366;-81
2022/03/21 05:45:37;;;;;;;43.43;21.03;;;;;;;-1.20;49.32;102693.14;124155;1099;104318;-82
2022/03/21 05:50:58;;;;;;;45.17;21.53;;;;;;;-0.99;48.68;102697.33;124544;1098;104184;-82
2022/03/21 05:53:39;;;;;;;45.40;21.93;;;;;;;-0.83;49.38;102694.87;124452;1099;104319;-81
2022/03/21 05:56:09;;;;;;;44.07;20.57;;;;;;;-0.68;49.04;102688.92;124518;1099;104262;-81
2022/03/21 05:58:39;;;;;;;50.10;21.20;;;;;;;-0.54;49.23;102693.10;124246;1099;104347;-81
2022/03/21 06:01:12;;;;;;;41.57;19.53;;;;;;;-0.38;49.40;102695.77;124727;1098;104238;-82
2022/03/21 06:03:42;;;;;;;45.75;20.20;;;;;;;-0.25;49.54;102692.92;123936;1097;104198;-82
2022/03/21 06:06:16;;;;;;;41.40;20.53;;;;;;;-0.15;48.97;102688.08;124688;1099;104191;-82
2022/03/21 06:09:02;;;;;;;44.43;20.20;;;;;;;-0.04;48.72;102687.63;123855;1099;104380;-83
2022/03/21 06:11:38;;;;;;;42.17;19.93;;;;;;;0.10;48.56;102684.02;123929;1099;104293;-82
2022/03/21 06:14:09;;;;;;;42.63;19.27;;;;;;;0.25;49.20;102687.42;123844;1099;104374;-81
2022/03/21 06:16:39;;;;;;;39.50;19.07;;;;;;;0.38;49.16;102684.54;124119;1099;104303;-81
2022/03/21 06:19:18;;;;;;;40.27;19.93;;;;;;;0.53;48.34;102686.25;124728;1098;104233;-84
2022/03/21 06:21:58;;;;;;;44.17;20.30;;;;;;;0.69;48.84;102686.27;124406;1099;104376;-82
2022/03/21 06:24:32;;;;;;;42.90;18.97;;;;;;;0.85;48.93;102680.20;124430;1099;104172;-83
2022/03/21 06:27:09;;;;;;;40.88;18.30;;;;;;;1.01;48.73;102682.78;124252;1099;104355;-84
2022/03/21 06:29:42;;;;;;;41.27;19.93;;;;;;;1.17;48.50;102672.43;123907;1099;104344;-84
2022/03/21 06:32:19;;;;;;;40.80;19.35;;;;;;;1.32;48.06;102670.59;124336;1099;104733;-82
2022/03/21 06:34:49;;;;;;;43.10;19.90;;;;;;;1.47;48.15;102668.75;124314;1099;104720;-82
2022/03/21 06:37:19;;;;;;;40.93;19.00;;;;;;;1.59;47.92;102655.44;124578;1099;104264;-81
2022/03/21 06:39:54;;;;;;;36.53;18.40;;;;;;;1.73;47.71;102655.96;124366;1099;104293;-82
2022/03/21 06:42:25;;;;;;;41.13;18.73;;;;;;;1.91;47.73;102651.82;123765;1099;104347;-77
2022/03/21 06:44:57;;;;;;;43.17;19.00;;;;;;;2.07;47.62;102651.74;124271;1099;104248;-79
2022/03/21 06:47:34;;;;;;;44.23;19.73;;;;;;;2.25;47.78;102652.75;124674;1099;104220;-80
2022/03/21 06:50:08;;;;;;;41.23;18.87;;;;;;;2.40;47.50;102661.17;124299;1098;104309;-79
2022/03/21 06:52:39;;;;;;;42.43;18.23;;;;;;;2.56;47.74;102651.64;124592;1099;104392;-77
2022/03/21 06:55:12;;;;;;;37.63;18.60;;;;;;;2.72;47.38;102659.30;124219;1099;104289;-79
2022/03/21 06:57:42;;;;;;;41.90;19.60;;;;;;;2.88;47.20;102652.33;124233;1099;104354;-81
2022/03/21 07:00:18;;;;;;;39.43;19.43;;;;;;;3.06;47.79;102648.05;124789;1099;104277;-81
2022/03/21 07:02:50;;;;;;;36.23;19.03;;;;;;;3.27;46.57;102634.48;125254;1099;104370;-81
2022/03/21 07:05:20;;;;;;;34.93;17.97;;;;;;;3.45;46.29;102632.80;124521;1098;104259;-79
2022/03/21 07:07:50;;;;;;;37.53;17.93;;;;;;;3.65;46.42;102639.95;123970;1099;104408;-80
2022/03/21 07:10:20;;;;;;;38.87;19.23;;;;;;;3.84;47.29;102640.06;124078;1099;104368;-78
2022/03/21 07:12:49;;;;;;;38.00;19.13;;;;;;;4.02;46.40;102636.64;123832;1098;104267;-77
2022/03/21 07:15:18;;;;;;;39.80;17.77;;;;;;;4.22;46.14;102640.22;124007;1099;104385;-77
2022/03/21 07:17:51;;;;;;;38.73;18.07;;;;;;;4.40;46.45;102635.88;123961;1099;104293;-80
2022/03/21 07:20:21;;;;;;;39.23;17.80;;;;;;;4.61;45.58;102631.77;124745;1099;104239;-80
2022/03/21 07:23:01;;;;;;;37.47;17.57;;;;;;;4.82;45.63;102632.87;124877;1099;104373;-81
2022/03/21 07:25:31;;;;;;;35.70;17.15;;;;;;;5.06;44.89;102628.09;124160;1099;104300;-80
2022/03/21 07:28:05;;;;;;;37.80;17.75;;;;;;;5.27;45.45;102634.38;124354;1099;104251;-79
2022/03/21 07:30:39;;;;;;;37.30;18.40;;;;;;;5.45;44.87;102630.80;123874;1099;104259;-79
2022/03/21 07:33:09;;;;;;;36.00;18.70;;;;;;;5.60;44.39;102628.68;124277;1099;104421;-80
2022/03/21 07:35:43;;;;;;;38.97;18.90;;;;;;;5.76;44.50;102634.50;124089;1099;104354;-80
2022/03/21 07:38:18;;;;;;;36.60;17.57;;;;;;;5.94;44.51;102632.59;124733;1099;104194;-82
2022/03/21 07:40:51;;;;;;;38.60;18.30;;;;;;;6.14;44.39;102625.67;124387;1099;104300;-82
2022/03/21 07:43:25;;;;;;;38.10;18.23;;;;;;;6.26;44.02;102628.41;124402;1099;104396;-78
2022/03/21 07:48:42;;;;;;;36.40;18.13;;;;;;;6.55;43.96;102630.04;124554;1099;104399;-78
2022/03/21 07:51:14;;;;;;;34.67;17.57;;;;;;;6.72;43.81;102621.05;124194;1099;104248;-79
2022/03/21 07:53:46;;;;;;;35.53;18.60;;;;;;;6.85;43.71;102616.06;124070;1099;104238;-80
2022/03/21 07:56:15;;;;;;;36.60;18.13;;;;;;;6.97;43.44;102619.72;124312;1099;104293;-79
2022/03/21 07:58:48;;;;;;;39.47;18.13;;;;;;;7.11;43.85;102614.75;124010;1099;104217;-80
2022/03/21 08:01:18;;;;;;;37.63;16.57;;;;;;;7.29;42.96;102620.58;124427;1099;104172;-78
2022/03/21 08:03:49;;;;;;;33.57;15.30;;;;;;;7.50;42.80;102616.22;124631;1099;104297;-78
2022/03/21 08:06:31;;;;;;;32.93;15.57;;;;;;;7.66;42.42;102608.83;124547;1099;104239;-79
2022/03/21 08:09:03;;;;;;;29.47;15.07;;;;;;;7.85;41.04;102607.70;124229;1099;104255;-80
2022/03/21 08:11:36;;;;;;;32.55;15.80;;;;;;;8.01;42.49;102600.31;124570;1099;104163;-80
2022/03/21 08:14:08;;;;;;;29.83;15.40;;;;;;;8.21;40.95;102595.73;124962;1099;104363;-79
2022/03/21 08:16:44;;;;;;;28.50;14.20;;;;;;;8.40;38.89;102585.93;124693;1099;104287;-78
2022/03/21 08:19:30;;;;;;;29.60;13.57;;;;;;;8.52;38.19;102585.08;124717;1099;104355;-80
2022/03/21 08:22:04;;;;;;;28.60;13.33;;;;;;;8.67;38.88;102585.37;124422;1099;104303;-79
2022/03/21 08:24:49;;;;;;;32.87;12.80;;;;;;;8.84;35.14;102592.80;123968;1099;104551;-81
2022/03/21 08:27:26;;;;;;;27.33;11.73;;;;;;;8.96;36.95;102570.16;123741;1099;104366;-81
2022/03/21 08:30:07;;;;;;;30.67;13.57;;;;;;;9.04;38.02;102573.36;123555;1099;104392;-80
2022/03/21 08:32:37;;;;;;;27.90;11.27;;;;;;;9.11;32.18;102572.10;123771;1099;104367;-80
2022/03/21 08:35:10;;;;;;;26.20;11.67;;;;;;;9.16;34.23;102563.80;123422;1102;104479;-76
2022/03/21 08:37:40;;;;;;;26.53;11.33;;;;;;;9.18;35.10;102553.44;123522;1101;104312;-76
2022/03/21 08:40:17;;;;;;;28.63;11.83;;;;;;;9.28;36.45;102553.30;123406;1101;104415;-78
2022/03/21 08:42:47;;;;;;;24.63;10.73;;;;;;;9.40;35.44;102555.02;123573;1102;104425;-80
2022/03/21 08:45:18;;;;;;;26.80;10.87;;;;;;;9.49;36.21;102547.80;123377;1102;104697;-77
2022/03/21 08:47:49;;;;;;;26.83;10.20;;;;;;;9.62;36.13;102552.25;123034;1102;104437;-77
2022/03/21 08:50:18;;;;;;;28.50;11.20;;;;;;;9.79;36.40;102540.36;123443;1102;104198;-79
2022/03/21 08:53:02;;;;;;;22.67;9.93;;;;;;;9.92;35.41;102539.51;123509;1102;104290;-79
2022/03/21 08:55:40;;;;;;;24.05;10.20;;;;;;;9.96;33.45;102545.08;123217;1102;104478;-77
2022/03/21 08:58:12;;;;;;;23.27;9.03;;;;;;;10.06;34.04;102534.42;123725;1102;104421;-80
2022/03/21 09:01:07;;;;;;;18.90;9.55;;;;;;;10.12;33.50;102527.80;123364;1102;104307;-78
2022/03/21 09:03:42;;;;;;;20.37;8.93;;;;;;;10.16;31.66;102528.13;123301;1100;104557;-78
2022/03/21 09:06:14;;;;;;;24.00;9.33;;;;;;;10.24;32.50;102524.31;123850;1102;104333;-77
2022/03/21 09:08:46;;;;;;;19.80;8.93;;;;;;;10.26;31.76;102512.20;123325;1099;104248;-78
2022/03/21 09:11:22;;;;;;;19.30;7.73;;;;;;;10.21;30.50;102510.98;123703;1099;104274;-77
2022/03/21 09:13:57;;;;;;;18.47;8.17;;;;;;;10.35;30.65;102527.72;123758;1099;104224;-78
2022/03/21 09:16:28;;;;;;;15.27;6.30;;;;;;;10.37;27.75;102506.83;123965;1099;104380;-79
2022/03/21 09:18:59;;;;;;;20.77;7.70;;;;;;;10.39;29.09;102515.70;123812;1099;104305;-79
2022/03/21 09:21:28;;;;;;;17.17;6.50;;;;;;;10.35;28.73;102505.83;123758;1099;104376;-79
2022/03/21 09:23:58;;;;;;;19.00;6.90;;;;;;;10.42;30.57;102505.41;124143;1099;105598;-78
2022/03/21 09:26:33;;;;;;;16.60;6.97;;;;;;;10.45;29.87;102507.35;125240;1099;104261;-80
2022/03/21 09:29:03;;;;;;;17.65;7.85;;;;;;;10.52;29.41;102512.23;123985;1099;104460;-78
2022/03/21 09:31:33;;;;;;;17.37;7.80;;;;;;;10.52;28.95;102517.48;123723;1099;104371;-77
2022/03/21 09:34:04;;;;;;;18.83;8.37;;;;;;;10.53;28.59;102512.33;123859;1099;104296;-76
2022/03/21 09:39:50;;;;;;;20.97;9.23;;;;;;;10.52;29.07;102505.25;123399;1099;104318;-76
2022/03/21 09:42:20;;;;;;;21.73;8.90;;;;;;;10.59;28.16;102501.31;123933;1099;104286;-78
2022/03/21 09:44:54;;;;;;;21.90;8.90;;;;;;;10.65;28.56;102488.60;124223;1099;107125;-78
2022/03/21 09:50:14;;;;;;;22.17;10.60;;;;;;;10.83;28.16;102490.63;123622;1099;104235;-79
2022/03/21 09:52:46;;;;;;;23.20;10.60;;;;;;;10.88;28.43;102500.64;123669;1099;104839;-76
2022/03/21 09:55:16;;;;;;;26.20;11.83;;;;;;;10.92;27.92;102491.24;123712;1099;104342;-76
2022/03/21 09:57:47;;;;;;;24.37;11.47;;;;;;;10.94;28.66;102492.28;123653;1099;104293;-77
2022/03/21 10:00:18;;;;;;;25.05;11.40;;;;;;;10.96;28.61;102488.92;123603;1099;104248;-77
2022/03/21 10:02:47;;;;;;;26.63;12.23;;;;;;;11.08;28.43;102487.89;124060;1099;104373;-80
2022/03/21 10:05:36;;;;;;;23.43;11.10;;;;;;;11.21;29.21;102479.12;124236;1099;104357;-79
2022/03/21 10:11:22;;;;;;;24.37;10.77;;;;;;;11.40;28.18;102465.43;124004;1099;105101;-78
2022/03/21 10:13:55;;;;;;;23.50;10.45;;;;;;;11.55;27.94;102465.51;123868;1099;105440;-75
2022/03/21 10:16:24;;;;;;;24.03;11.90;;;;;;;11.67;27.36;102463.62;124208;1098;102733;-76
2022/03/21 10:19:03;;;;;;;24.57;11.27;;;;;;;11.70;27.72;102461.18;123931;1099;104245;-77
2022/03/21 10:21:37;;;;;;;27.57;12.10;;;;;;;11.62;27.87;102462.43;124570;1099;104326;-77
2022/03/21 10:24:16;;;;;;;23.67;11.33;;;;;;;11.51;28.06;102453.86;124198;1099;104383;-79
2022/03/21 10:26:49;;;;;;;24.33;11.57;;;;;;;11.40;28.13;102450.55;124629;1098;104211;-79
2022/03/21 10:29:23;;;;;;;26.07;12.17;;;;;;;11.40;27.81;102436.52;124772;1099;104246;-78
2022/03/21 10:31:55;;;;;;;26.23;11.53;;;;;;;11.46;26.51;102450.95;124179;1099;104297;-78
2022/03/21 10:34:30;;;;;;;25.00;11.80;;;;;;;11.71;27.75;102436.71;124919;1099;104284;-78
2022/03/21 10:37:01;;;;;;;25.30;12.07;;;;;;;11.94;27.43;102442.53;124231;1099;104338;-79
2022/03/21 10:39:32;;;;;;;26.27;12.90;;;;;;;12.06;27.62;102424.86;124286;1099;104240;-79
2022/03/21 10:42:06;;;;;;;23.97;12.07;;;;;;;12.15;27.85;102420.12;125217;1099;104293;-78
2022/03/21 10:44:36;;;;;;;25.10;12.60;;;;;;;12.17;28.04;102415.88;124509;1099;104287;-80
2022/03/21 10:47:08;;;;;;;29.83;13.40;;;;;;;12.25;28.35;102416.33;124314;1099;104290;-79
2022/03/21 10:49:40;;;;;;;23.67;11.73;;;;;;;12.22;27.61;102413.52;124729;1099;104440;-78
2022/03/21 10:52:15;;;;;;;23.30;11.23;;;;;;;12.21;27.01;102411.69;124254;1098;104162;-79
2022/03/21 10:54:48;;;;;;;22.17;10.80;;;;;;;12.09;26.49;102397.80;123858;1099;104302;-79
2022/03/21 10:57:36;;;;;;;23.27;10.60;;;;;;;12.05;26.21;102401.98;124136;1099;104802;-78
2022/03/21 11:00:16;;;;;;;24.40;10.13;;;;;;;12.02;26.71;102388.64;124203;1099;104242;-79
2022/03/21 11:02:58;;;;;;;23.77;10.83;;;;;;;12.07;27.15;102387.18;124181;1099;104351;-77
2022/03/21 11:05:30;;;;;;;25.30;10.37;;;;;;;12.19;27.01;102376.48;124521;1099;104379;-79
2022/03/21 11:08:02;;;;;;;21.73;9.70;;;;;;;12.29;27.14;102367.40;124581;1099;104281;-79
2022/03/21 11:10:32;;;;;;;19.60;9.63;;;;;;;12.36;27.38;102357.32;124951;1099;104414;-79
2022/03/21 11:13:03;;;;;;;22.13;10.30;;;;;;;12.39;26.96;102352.23;124547;1099;104357;-79
2022/03/21 11:15:37;;;;;;;22.30;9.30;;;;;;;12.45;26.74;102358.66;125104;1099;104347;-80
2022/03/21 11:18:08;;;;;;;20.47;9.63;;;;;;;12.50;26.74;102334.42;124675;1098;104277;-78
2022/03/21 11:20:38;;;;;;;19.67;9.40;;;;;;;12.57;26.96;102331.33;124836;1099;104321;-77
2022/03/21 11:23:09;;;;;;;22.47;8.90;;;;;;;12.65;26.80;102330.83;124502;1099;104242;-78
2022/03/21 11:25:45;;;;;;;16.97;7.57;;;;;;;12.72;26.08;102311.94;124407;1099;104232;-79
2022/03/21 11:28:54;;;;;;;18.90;7.93;;;;;;;12.80;26.61;102322.90;124537;1099;104753;-78
2022/03/21 11:31:51;;;;;;;20.70;9.20;;;;;;;12.78;26.52;102320.18;124664;1099;104278;-77
2022/03/21 11:34:37;;;;;;;20.10;9.03;;;;;;;12.82;26.84;102308.08;125757;1099;104156;-80
2022/03/21 11:37:29;;;;;;;19.90;8.73;;;;;;;12.84;26.80;102302.08;124318;1099;104261;-79
2022/03/21 11:40:30;;;;;;;20.87;9.00;;;;;;;12.89;26.14;102307.60;124290;1099;104367;-78
2022/03/21 11:43:26;;;;;;;24.70;9.55;;;;;;;12.94;27.01;102301.74;123738;1099;104462;-78
2022/03/21 11:45:57;;;;;;;21.70;9.03;;;;;;;13.03;26.80;102295.19;123895;1099;104492;-78
2022/03/21 11:48:36;;;;;;;20.00;9.03;;;;;;;13.00;25.42;102295.02;124094;1099;104351;-80
2022/03/21 11:51:26;;;;;;;23.73;9.93;;;;;;;13.05;26.86;102296.16;123827;1100;104303;-80
2022/03/21 11:54:08;;;;;;;21.30;9.80;;;;;;;13.07;26.67;102287.53;124643;1098;104453;-81
2022/03/21 11:56:57;;;;;;;21.37;9.53;;;;;;;13.06;26.31;102290.98;124632;1099;104248;-81
2022/03/21 11:59:52;;;;;;;27.93;10.33;;;;;;;13.02;26.59;102296.00;124658;1099;104298;-78
2022/03/21 12:02:55;;;;;;;23.10;10.20;;;;;;;12.87;26.67;102274.98;123730;1099;104934;-79
2022/03/21 12:05:50;;;;;;;22.40;9.93;;;;;;;12.90;27.10;102273.44;124159;1099;104370;-78
2022/03/21 12:08:50;;;;;;;21.60;10.37;;;;;;;12.87;26.97;102273.27;124190;1099;119552;-79
2022/03/21 12:12:01;;;;;;;23.53;10.17;;;;;;;12.91;27.09;102272.59;124031;1099;104399;-77
2022/03/21 12:14:48;;;;;;;21.70;9.63;;;;;;;13.03;26.38;102268.83;124112;1099;104348;-77
2022/03/21 12:17:40;;;;;;;20.67;9.03;;;;;;;13.02;25.37;102267.91;124023;1099;104239;-77
2022/03/21 12:20:14;;;;;;;20.07;9.37;;;;;;;13.03;25.78;102269.73;123844;1099;104238;-77
2022/03/21 12:22:51;;;;;;;22.73;10.05;;;;;;;13.05;26.14;102267.17;123961;1099;104271;-78
2022/03/21 12:25:40;;;;;;;23.43;11.13;;;;;;;13.08;26.32;102272.61;123792;1099;104281;-77
2022/03/21 12:29:31;;;;;;;22.07;10.80;;;;;;;13.06;26.29;102255.83;123985;1099;104235;-75
2022/03/21 12:31:30;;;;;;;22.00;9.97;;;;;;;12.99;26.28;102267.73;123999;1099;104317;-76
2022/03/21 12:34:39;;;;;;;24.37;11.30;;;;;;;13.04;27.08;102249.55;124538;1099;104238;-77
2022/03/21 12:37:28;;;;;;;22.90;10.77;;;;;;;12.99;26.11;102237.86;123738;1099;104489;-77
2022/03/21 12:40:24;;;;;;;20.70;8.80;;;;;;;13.01;25.37;102236.20;123810;1099;104345;-78
2022/03/21 12:43:16;;;;;;;20.47;9.53;;;;;;;13.11;25.55;102241.16;123724;1099;104369;-78
2022/03/21 12:45:49;;;;;;;19.43;8.73;;;;;;;13.11;25.91;102238.52;124040;1099;104281;-78
2022/03/21 12:48:34;;;;;;;21.37;9.60;;;;;;;13.12;26.13;102227.16;123923;1099;104245;-78
2022/03/21 12:51:05;;;;;;;20.73;9.53;;;;;;;13.11;26.51;102228.87;123818;1099;104326;-77
2022/03/21 12:53:40;;;;;;;20.97;9.63;;;;;;;13.14;26.57;102230.77;123540;1099;104361;-78
2022/03/21 12:56:12;;;;;;;24.07;9.30;;;;;;;13.16;26.38;102223.84;123675;1099;104353;-78
2022/03/21 12:58:46;;;;;;;21.67;8.30;;;;;;;13.16;25.28;102215.03;124062;1099;104216;-77
2022/03/21 13:01:18;;;;;;;18.27;8.13;;;;;;;13.12;25.62;102220.15;123664;1099;104245;-78
2022/03/21 13:03:47;;;;;;;17.00;7.95;;;;;;;13.10;25.45;102219.17;123654;1099;104340;-76
2022/03/21 13:11:56;;;;;;;18.93;7.83;;;;;;;13.11;24.93;102230.61;123937;1099;104287;-79
2022/03/21 13:17:43;;;;;;;21.73;7.33;;;;;;;13.07;25.27;102213.73;123745;1099;104309;-79
2022/03/21 13:20:52;;;;;;;16.63;7.20;;;;;;;13.06;25.09;102203.11;123712;1099;104720;-79
2022/03/21 13:23:54;;;;;;;15.57;7.00;;;;;;;13.05;24.07;102218.00;123299;1102;104863;-79
2022/03/21 13:26:35;;;;;;;18.27;7.67;;;;;;;13.04;24.70;102194.20;123696;1102;104315;-80
2022/03/21 13:29:14;;;;;;;15.40;6.80;;;;;;;13.03;23.38;102211.75;123862;1102;103256;-78
2022/03/21 13:31:56;;;;;;;18.23;7.23;;;;;;;13.08;23.71;102214.63;123908;1102;104475;-80
2022/03/21 13:34:37;;;;;;;18.80;8.60;;;;;;;13.13;23.75;102205.23;124254;1102;104448;-79
2022/03/21 13:37:21;;;;;;;18.20;8.07;;;;;;;13.19;22.61;102218.73;123883;1102;104498;-81
2022/03/21 13:40:06;;;;;;;23.90;9.17;;;;;;;13.22;24.22;102205.71;124050;1102;104334;-77
2022/03/21 13:42:36;;;;;;;23.07;10.40;;;;;;;13.22;24.42;102212.72;123550;1102;104465;-77
2022/03/21 13:45:12;;;;;;;27.00;13.43;;;;;;;13.25;24.30;102221.69;123477;1102;104382;-77
2022/03/21 13:47:53;;;;;;;30.77;14.83;;;;;;;13.25;24.42;102207.61;123503;1102;104451;-78
2022/03/21 13:50:38;;;;;;;28.03;13.70;;;;;;;13.23;23.70;102210.17;123987;1102;105188;-79
2022/03/21 13:53:25;;;;;;;26.13;13.37;;;;;;;13.21;23.46;102206.52;123835;1102;104406;-78
2022/03/21 13:55:54;;;;;;;26.57;13.97;;;;;;;13.20;23.56;102202.09;123995;1099;104364;-78
2022/03/21 13:58:29;;;;;;;31.80;14.30;;;;;;;13.21;23.74;102202.99;124354;1099;104247;-79
2022/03/21 14:00:58;;;;;;;25.57;11.10;;;;;;;13.20;23.30;102207.38;124055;1098;104207;-78
2022/03/21 14:03:39;;;;;;;23.07;9.40;;;;;;;13.17;24.00;102204.58;123469;1098;104778;-79
2022/03/21 14:06:11;;;;;;;23.57;10.20;;;;;;;13.16;23.83;102193.95;123810;1099;104213;-78
2022/03/21 14:08:45;;;;;;;25.23;10.15;;;;;;;13.13;24.33;102197.32;124031;1099;104383;-78
2022/03/21 14:11:22;;;;;;;29.67;11.80;;;;;;;13.13;24.04;102202.59;124521;1099;104507;-79
2022/03/21 14:13:53;;;;;;;22.73;10.47;;;;;;;13.12;24.21;102195.53;124649;1099;104325;-80
2022/03/21 14:16:25;;;;;;;21.17;9.43;;;;;;;13.12;23.84;102195.53;124269;1099;104357;-78
2022/03/21 14:18:56;;;;;;;21.77;9.07;;;;;;;13.13;23.83;102192.98;123966;1098;104418;-78
2022/03/21 14:21:29;;;;;;;18.60;7.10;;;;;;;13.11;22.61;102199.87;124024;1099;104290;-78
2022/03/21 14:24:07;;;;;;;16.60;7.20;;;;;;;13.11;23.62;102184.06;124118;1099;104431;-79
2022/03/21 14:26:40;;;;;;;18.63;7.63;;;;;;;13.08;23.86;102191.80;124146;1099;104344;-79
2022/03/21 14:29:14;;;;;;;16.93;6.50;;;;;;;13.06;24.37;102187.30;124139;1099;104338;-79
2022/03/21 14:31:44;;;;;;;16.10;6.55;;;;;;;13.04;23.76;102188.93;124291;1100;104306;-81
2022/03/21 14:34:18;;;;;;;13.77;6.03;;;;;;;13.05;24.19;102190.75;124442;1099;104261;-79
2022/03/21 14:37:01;;;;;;;16.57;6.80;;;;;;;13.05;24.29;102182.84;124627;1099;104421;-82
2022/03/21 14:39:35;;;;;;;14.80;6.30;;;;;;;13.04;23.67;102196.83;124814;1099;102951;-79
2022/03/21 14:42:10;;;;;;;14.90;6.20;;;;;;;13.04;23.62;102183.66;123862;1099;104226;-79
2022/03/21 14:44:42;;;;;;;15.17;6.10;;;;;;;13.07;24.02;102183.82;124195;1099;104344;-77
2022/03/21 14:47:15;;;;;;;16.43;6.47;;;;;;;13.11;23.55;102183.17;123905;1099;104249;-78
2022/03/21 14:49:50;;;;;;;13.83;6.03;;;;;;;13.09;23.76;102180.45;124555;1099;104238;-81
2022/03/21 14:52:21;;;;;;;15.53;6.63;;;;;;;13.08;24.01;102183.91;124832;1098;104290;-79